Time;durP1;ratioP1;P1;durP2;ratioP2;P2;SDS_P1;SDS_P2;PMS_P1;PMS_P2;Temp;Humidity;BMP_temperature;BMP_pressure;BME280_temperature;BME280_humidity;BME280_pressure;Samples;Min_cycle;Max_cycle;Signal;HPM_P1;HPM_P2
2021/05/04 00:01:19;;;;;;;;;;;;;;;11.69;47.63;100840.84;5070755;27;98791;-78
2021/05/04 00:03:44;;;;;;;;;;;;;;;11.61;48.07;100835.88;5089401;27;100628;-77
2021/05/04 00:06:10;;;;;;;;;;;;;;;11.52;48.13;100833.56;5079299;27;96939;-77
2021/05/04 00:08:36;;;;;;;;;;;;;;;11.58;47.77;100826.25;5071312;27;97488;-77
2021/05/04 00:11:02;;;;;;;;;;;;;;;11.84;47.30;100819.97;5069638;27;98906;-77
2021/05/04 00:13:28;;;;;;;;;;;;;;;11.62;47.70;100818.22;5064942;27;98773;-77
2021/05/04 00:15:54;;;;;;;;;;;;;;;11.80;47.30;100826.34;5056588;27;96707;-78
2021/05/04 00:18:20;;;;;;;;;;;;;;;11.53;47.75;100809.69;5063266;27;97084;-78
2021/05/04 00:20:46;;;;;;;;;;;;;;;11.71;46.83;100810.75;5058149;27;98133;-79
2021/05/04 00:23:12;;;;;;;;;;;;;;;11.65;46.67;100804.84;5066987;27;98975;-78
2021/05/04 00:25:38;;;;;;;;;;;;;;;11.60;46.88;100805.03;5065061;27;97074;-78
2021/05/04 00:28:04;;;;;;;;;;;;;;;11.81;46.50;100800.72;5068495;27;96924;-78
2021/05/04 00:30:30;;;;;;;;;;;;;;;11.60;46.84;100802.38;5063680;27;99083;-78
2021/05/04 00:32:56;;;;;;;;;;;;;;;11.82;45.91;100799.78;5071855;27;98741;-77
2021/05/04 00:35:22;;;;;;;;;;;;;;;11.75;45.92;100790.38;5061081;27;96750;-79
2021/05/04 00:37:48;;;;;;;;;;;;;;;11.87;45.17;100784.59;5070605;27;98537;-77
2021/05/04 00:40:14;;;;;;;;;;;;;;;11.75;44.88;100785.09;5080180;27;99128;-79
2021/05/04 00:42:40;;;;;;;;;;;;;;;11.78;45.09;100777.00;5083713;27;97938;-78
2021/05/04 00:45:07;;;;;;;;;;;;;;;11.65;44.80;100768.66;5088760;27;96611;-78
2021/05/04 00:47:33;;;;;;;;;;;;;;;11.85;44.61;100763.47;5080633;27;96676;-77
2021/05/04 00:49:59;;;;;;;;;;;;;;;11.64;43.95;100766.91;5085378;27;98000;-78
2021/05/04 00:52:25;;;;;;;;;;;;;;;11.80;44.02;100762.78;5080489;27;96717;-78
2021/05/04 00:54:51;;;;;;;;;;;;;;;11.84;43.62;100752.94;5073543;27;97136;-78
2021/05/04 00:57:17;;;;;;;;;;;;;;;11.87;43.72;100747.53;5073149;27;96845;-79
2021/05/04 00:59:44;;;;;;;;;;;;;;;12.16;43.34;100748.94;5073950;27;99009;-78
2021/05/04 01:02:09;;;;;;;;;;;;;;;11.90;43.41;100747.38;5069084;27;99103;-79
2021/05/04 01:04:35;;;;;;;;;;;;;;;11.96;43.28;100731.25;5082938;27;97108;-78
2021/05/04 01:07:01;;;;;;;;;;;;;;;11.57;43.68;100734.53;5077583;27;96907;-78
2021/05/04 01:09:28;;;;;;;;;;;;;;;11.89;43.50;100724.47;5077261;27;98882;-78
2021/05/04 01:11:54;;;;;;;;;;;;;;;11.88;43.25;100733.38;5064522;27;99601;-77
2021/05/04 01:14:20;;;;;;;;;;;;;;;12.03;42.78;100714.16;5056488;27;96746;-78
2021/05/04 01:16:49;;;;;;;;;;;;;;;12.10;42.56;100713.00;5068846;27;96899;-78
2021/05/04 01:19:16;;;;;;;;;;;;;;;11.97;42.58;100709.13;5062914;27;96943;-78
2021/05/04 01:21:42;;;;;;;;;;;;;;;12.02;42.65;100709.78;5067582;27;98864;-78
2021/05/04 01:24:09;;;;;;;;;;;;;;;12.07;42.56;100697.25;5063033;27;96799;-78
2021/05/04 01:26:34;;;;;;;;;;;;;;;12.07;42.49;100694.59;5075236;27;96852;-78
2021/05/04 01:29:00;;;;;;;;;;;;;;;12.04;42.69;100693.84;5073783;27;98752;-78
2021/05/04 01:31:26;;;;;;;;;;;;;;;12.15;42.23;100686.28;5073175;27;99858;-78
2021/05/04 01:33:52;;;;;;;;;;;;;;;11.95;42.81;100682.72;5073107;27;97985;-78
2021/05/04 01:36:19;;;;;;;;;;;;;;;11.52;43.32;100678.31;5071224;27;97289;-78
2021/05/04 01:38:45;;;;;;;;;;;;;;;11.72;43.23;100669.56;5073587;27;99525;-79
2021/05/04 01:41:11;;;;;;;;;;;;;;;11.75;42.89;100666.78;5070053;27;98862;-78
2021/05/04 01:43:37;;;;;;;;;;;;;;;11.74;42.88;100656.28;5072163;27;96978;-80
2021/05/04 01:46:02;;;;;;;;;;;;;;;11.83;42.64;100650.59;5073790;27;97565;-78
2021/05/04 01:48:28;;;;;;;;;;;;;;;11.83;42.63;100651.47;5065947;27;98710;-78
2021/05/04 01:50:54;;;;;;;;;;;;;;;11.79;42.51;100654.31;5069083;27;98882;-78
2021/05/04 01:53:20;;;;;;;;;;;;;;;11.53;43.21;100635.03;5069261;27;96997;-79
2021/05/04 01:55:46;;;;;;;;;;;;;;;11.63;42.88;100627.56;5073985;27;99043;-76
2021/05/04 01:58:12;;;;;;;;;;;;;;;12.15;42.08;100628.88;5070784;27;98979;-78
2021/05/04 02:00:38;;;;;;;;;;;;;;;11.59;42.79;100623.34;5067006;27;101557;-77
2021/05/04 02:03:04;;;;;;;;;;;;;;;11.73;42.57;100623.63;5080191;27;96874;-78
2021/05/04 02:05:30;;;;;;;;;;;;;;;11.83;42.54;100618.81;5063824;27;96960;-78
2021/05/04 02:07:56;;;;;;;;;;;;;;;11.91;42.47;100607.00;5073719;27;98453;-78
2021/05/04 02:10:22;;;;;;;;;;;;;;;11.87;42.27;100605.41;5072143;27;99879;-79
2021/05/04 02:12:48;;;;;;;;;;;;;;;11.57;42.97;100599.56;5077283;27;97229;-78
2021/05/04 02:15:14;;;;;;;;;;;;;;;11.69;42.69;100592.03;5072182;27;96755;-78
2021/05/04 02:17:40;;;;;;;;;;;;;;;11.77;42.56;100582.03;5082991;27;98921;-78
2021/05/04 02:20:06;;;;;;;;;;;;;;;11.69;42.83;100577.03;5090451;27;97664;-78
2021/05/04 02:22:33;;;;;;;;;;;;;;;11.50;43.18;100574.28;5090025;27;96740;-77
2021/05/04 02:24:59;;;;;;;;;;;;;;;11.75;42.94;100568.00;5087841;27;96367;-77
2021/05/04 02:27:24;;;;;;;;;;;;;;;11.75;42.49;100562.72;5092127;27;98084;-77
2021/05/04 02:29:51;;;;;;;;;;;;;;;11.52;42.80;100553.06;5096421;27;97668;-77
2021/05/04 02:32:17;;;;;;;;;;;;;;;11.67;42.51;100551.56;5087893;27;96601;-77
2021/05/04 02:34:43;;;;;;;;;;;;;;;11.67;42.53;100541.84;5063495;27;97910;-77
2021/05/04 02:37:09;;;;;;;;;;;;;;;11.69;42.33;100541.75;5073243;27;100856;-78
2021/05/04 02:39:35;;;;;;;;;;;;;;;11.74;42.50;100543.34;5071540;27;97779;-77
2021/05/04 02:42:01;;;;;;;;;;;;;;;12.00;41.79;100523.66;5070256;27;97178;-77
2021/05/04 02:44:26;;;;;;;;;;;;;;;11.67;42.38;100517.16;5066382;27;97540;-77
2021/05/04 02:46:53;;;;;;;;;;;;;;;11.61;42.47;100513.00;5068633;27;97465;-76
2021/05/04 02:49:19;;;;;;;;;;;;;;;12.08;41.85;100496.81;5069471;27;99087;-76
2021/05/04 02:51:45;;;;;;;;;;;;;;;12.16;41.89;100492.88;5061429;27;96826;-77
2021/05/04 02:54:10;;;;;;;;;;;;;;;11.77;42.40;100481.44;5072934;27;97933;-77
2021/05/04 02:56:37;;;;;;;;;;;;;;;12.08;41.92;100480.94;5072441;27;98915;-78
2021/05/04 02:59:03;;;;;;;;;;;;;;;12.06;42.23;100478.34;5062395;27;99157;-77
2021/05/04 03:01:29;;;;;;;;;;;;;;;12.22;41.97;100463.44;5067048;27;97758;-78
2021/05/04 03:03:56;;;;;;;;;;;;;;;12.02;42.41;100460.84;5073732;27;96913;-77
2021/05/04 03:06:21;;;;;;;;;;;;;;;11.99;42.68;100455.72;5064304;27;101373;-77
2021/05/04 03:08:47;;;;;;;;;;;;;;;11.63;43.52;100444.09;5071273;27;98779;-77
2021/05/04 03:11:13;;;;;;;;;;;;;;;11.65;43.42;100434.31;5071372;27;98023;-77
2021/05/04 03:13:39;;;;;;;;;;;;;;;11.67;43.94;100429.81;5073743;27;96864;-77
2021/05/04 03:16:05;;;;;;;;;;;;;;;11.67;43.28;100422.75;5065080;27;98904;-77
2021/05/04 03:18:31;;;;;;;;;;;;;;;11.65;43.63;100419.28;5064160;27;99155;-77
2021/05/04 03:20:58;;;;;;;;;;;;;;;11.40;44.06;100408.09;5074160;27;96903;-77
2021/05/04 03:23:24;;;;;;;;;;;;;;;11.68;43.78;100407.72;5077712;27;96923;-77
2021/05/04 03:25:50;;;;;;;;;;;;;;;11.62;43.80;100408.00;5067236;27;97838;-77
2021/05/04 03:28:16;;;;;;;;;;;;;;;11.52;44.02;100397.81;5076922;27;98932;-77
2021/05/04 03:30:42;;;;;;;;;;;;;;;11.48;43.99;100398.03;5077497;27;96743;-77
2021/05/04 03:33:08;;;;;;;;;;;;;;;11.53;44.01;100388.94;5062662;27;98491;-78
2021/05/04 03:35:34;;;;;;;;;;;;;;;11.71;43.74;100376.66;5066296;27;98898;-77
2021/05/04 03:38:01;;;;;;;;;;;;;;;11.48;44.16;100379.50;5069251;27;99150;-77
2021/05/04 03:40:27;;;;;;;;;;;;;;;11.47;44.15;100372.50;5068619;27;97117;-76
2021/05/04 03:42:53;;;;;;;;;;;;;;;11.45;44.32;100369.91;5061782;27;96887;-77
2021/05/04 03:45:21;;;;;;;;;;;;;;;11.57;43.86;100363.19;5069884;27;116873;-77
2021/05/04 03:47:47;;;;;;;;;;;;;;;11.81;43.48;100348.03;5061790;27;99104;-78
2021/05/04 03:50:14;;;;;;;;;;;;;;;11.36;44.03;100348.28;5069941;27;96842;-78
2021/05/04 03:52:39;;;;;;;;;;;;;;;11.63;43.58;100339.09;5063279;27;97040;-79
2021/05/04 03:55:07;;;;;;;;;;;;;;;11.32;44.47;100328.19;5075598;27;99169;-77
2021/05/04 03:57:33;;;;;;;;;;;;;;;11.65;43.91;100324.00;5087513;27;99800;-77
2021/05/04 03:59:59;;;;;;;;;;;;;;;11.86;43.35;100322.19;5059699;27;97030;-78
2021/05/04 04:02:25;;;;;;;;;;;;;;;11.92;43.52;100321.91;5069084;27;98414;-80
2021/05/04 04:04:51;;;;;;;;;;;;;;;11.88;43.22;100315.03;5073815;27;98966;-79
2021/05/04 04:07:17;;;;;;;;;;;;;;;11.64;43.71;100308.19;5065158;27;99116;-79
2021/05/04 04:09:43;;;;;;;;;;;;;;;11.46;44.27;100296.69;5072275;27;96890;-78
2021/05/04 04:12:10;;;;;;;;;;;;;;;11.59;43.88;100296.06;5066529;27;97168;-78
2021/05/04 04:14:35;;;;;;;;;;;;;;;11.63;43.58;100280.88;5061399;27;98998;-79
2021/05/04 04:17:01;;;;;;;;;;;;;;;12.05;43.06;100285.09;5067733;27;98751;-78
2021/05/04 04:19:27;;;;;;;;;;;;;;;12.12;43.06;100289.16;5072743;27;96763;-79
2021/05/04 04:21:53;;;;;;;;;;;;;;;12.14;42.54;100272.25;5072107;27;97390;-78
2021/05/04 04:24:18;;;;;;;;;;;;;;;12.38;41.67;100273.69;5068078;27;97504;-78
2021/05/04 04:26:44;;;;;;;;;;;;;;;12.36;41.65;100262.31;5068057;27;98709;-77
2021/05/04 04:29:11;;;;;;;;;;;;;;;12.53;41.47;100260.59;5070041;27;96957;-78
2021/05/04 04:31:37;;;;;;;;;;;;;;;12.50;40.93;100255.44;5073420;27;98425;-76
2021/05/04 04:34:03;;;;;;;;;;;;;;;12.25;41.70;100250.53;5071447;27;99237;-77
2021/05/04 04:36:29;;;;;;;;;;;;;;;12.31;41.79;100244.94;5075709;27;99228;-78
2021/05/04 04:38:54;;;;;;;;;;;;;;;12.27;41.62;100244.22;5073932;27;98720;-77
2021/05/04 04:41:21;;;;;;;;;;;;;;;12.56;41.05;100248.03;5075370;27;98802;-77
2021/05/04 04:43:47;;;;;;;;;;;;;;;12.67;40.88;100239.53;5072496;27;98971;-77
2021/05/04 04:46:14;;;;;;;;;;;;;;;12.56;41.10;100233.94;5063229;27;98052;-76
2021/05/04 04:48:40;;;;;;;;;;;;;;;12.70;40.78;100232.28;5073047;27;96836;-77
2021/05/04 04:51:08;;;;;;;;;;;;;;;12.56;40.71;100228.63;5075255;27;97211;-77
2021/05/04 04:53:34;;;;;;;;;;;;;;;12.70;40.47;100221.69;5069010;27;98313;-78
2021/05/04 04:55:59;;;;;;;;;;;;;;;12.42;40.92;100221.38;5079254;27;98732;-78
2021/05/04 04:58:25;;;;;;;;;;;;;;;12.40;41.15;100220.63;5061745;27;96934;-78
2021/05/04 05:00:51;;;;;;;;;;;;;;;12.66;40.69;100209.53;5066175;27;97282;-78
2021/05/04 05:03:19;;;;;;;;;;;;;;;12.73;40.58;100199.47;5071251;27;99057;-78
2021/05/04 05:05:45;;;;;;;;;;;;;;;12.78;39.81;100197.41;5065717;27;99118;-79
2021/05/04 05:08:11;;;;;;;;;;;;;;;12.74;40.49;100186.09;5074396;27;97464;-77
2021/05/04 05:10:36;;;;;;;;;;;;;;;12.91;40.12;100189.66;5073828;27;96853;-77
2021/05/04 05:13:02;;;;;;;;;;;;;;;12.27;40.99;100185.94;5075571;27;98873;-78
2021/05/04 05:15:29;;;;;;;;;;;;;;;12.88;40.29;100174.75;5074929;27;98755;-78
2021/05/04 05:17:55;;;;;;;;;;;;;;;12.86;39.97;100168.72;5074806;27;96794;-77
2021/05/04 05:20:21;;;;;;;;;;;;;;;13.06;39.53;100165.81;5073402;27;98768;-78
2021/05/04 05:22:47;;;;;;;;;;;;;;;13.35;39.35;100150.09;5073923;27;98919;-78
2021/05/04 05:25:13;;;;;;;;;;;;;;;13.38;39.01;100142.84;5075568;27;98326;-79
2021/05/04 05:27:39;;;;;;;;;;;;;;;13.09;39.27;100144.44;5074952;27;97850;-79
2021/05/04 05:30:05;;;;;;;;;;;;;;;13.03;39.67;100130.66;5075652;27;97056;-78
2021/05/04 05:32:31;;;;;;;;;;;;;;;12.89;39.53;100123.44;5074245;27;98911;-79
2021/05/04 05:34:57;;;;;;;;;;;;;;;12.76;39.63;100111.78;5063015;27;97709;-79
2021/05/04 05:37:24;;;;;;;;;;;;;;;12.91;39.25;100110.13;5071750;27;96847;-78
2021/05/04 05:39:49;;;;;;;;;;;;;;;12.86;39.14;100094.47;5069922;27;96888;-79
2021/05/04 05:42:15;;;;;;;;;;;;;;;13.41;39.04;100092.22;5068845;27;98800;-79
2021/05/04 05:44:41;;;;;;;;;;;;;;;13.12;39.21;100090.38;5069468;27;98814;-79
2021/05/04 05:47:07;;;;;;;;;;;;;;;13.32;39.15;100079.50;5066021;27;98455;-77
2021/05/04 05:49:33;;;;;;;;;;;;;;;13.73;38.25;100065.59;5068607;27;97698;-76
2021/05/04 05:51:59;;;;;;;;;;;;;;;13.93;37.54;100047.53;5073388;27;99325;-76
2021/05/04 05:54:26;;;;;;;;;;;;;;;13.64;38.05;100052.91;5075041;27;97863;-77
2021/05/04 05:56:51;;;;;;;;;;;;;;;13.90;37.92;100047.75;5069750;27;97014;-77
2021/05/04 05:59:17;;;;;;;;;;;;;;;13.66;37.94;100049.19;5071827;27;97003;-78
2021/05/04 06:01:43;;;;;;;;;;;;;;;13.80;37.56;100035.09;5080691;27;97911;-78
2021/05/04 06:04:09;;;;;;;;;;;;;;;13.55;37.77;100017.97;5090677;27;98427;-78
2021/05/04 06:06:35;;;;;;;;;;;;;;;14.13;36.95;100025.06;5088312;27;96986;-78
2021/05/04 06:09:00;;;;;;;;;;;;;;;14.70;35.85;100017.13;5079856;27;97654;-77
2021/05/04 06:14:23;;;;;;;;;;;;;;;14.44;35.98;100002.78;5089471;27;96796;-78
2021/05/04 06:16:49;;;;;;;;;;;;;;;14.77;35.72;99987.34;5080729;27;98531;-78
2021/05/04 06:19:18;;;;;;;;;;;;;;;14.58;36.45;99984.16;5081897;27;97163;-78
2021/05/04 06:21:53;;;;;;;;;;;;;;;15.10;35.40;99964.81;5094481;27;96848;-76
2021/05/04 06:24:19;;;;;;;;;;;;;;;15.22;34.94;99958.69;5091472;27;99303;-75
2021/05/04 06:26:44;;;;;;;;;;;;;;;15.57;34.59;99944.81;5084424;27;96843;-77
2021/05/04 06:29:11;;;;;;;;;;;;;;;15.49;34.46;99940.84;5083224;27;97189;-76
2021/05/04 06:31:38;;;;;;;;;;;;;;;15.39;35.07;99937.09;5086121;27;98906;-76
2021/05/04 06:34:05;;;;;;;;;;;;;;;15.90;34.23;99926.50;5083638;27;97763;-75
2021/05/04 06:36:31;;;;;;;;;;;;;;;15.91;34.15;99920.22;5080944;27;96625;-78
2021/05/04 06:38:57;;;;;;;;;;;;;;;15.47;34.96;99910.81;5086907;27;99042;-78
2021/05/04 06:41:24;;;;;;;;;;;;;;;15.03;35.38;99902.34;5078419;27;100047;-78
2021/05/04 06:43:51;;;;;;;;;;;;;;;14.80;35.82;99905.66;5072319;27;98165;-79
2021/05/04 06:46:19;;;;;;;;;;;;;;;15.35;35.15;99886.84;5070153;27;97096;-78
2021/05/04 06:48:46;;;;;;;;;;;;;;;15.56;34.66;99874.72;5076760;27;97059;-78
2021/05/04 06:51:11;;;;;;;;;;;;;;;15.64;34.75;99883.03;5076393;27;98074;-78
2021/05/04 06:53:37;;;;;;;;;;;;;;;15.58;34.68;99863.97;5074282;27;99144;-77
2021/05/04 06:56:03;;;;;;;;;;;;;;;15.40;34.75;99866.09;5072850;27;96812;-77
2021/05/04 06:58:29;;;;;;;;;;;;;;;15.33;35.44;99857.66;5075887;27;96841;-77
2021/05/04 07:00:55;;;;;;;;;;;;;;;15.61;34.92;99855.78;5063258;27;98732;-77
2021/05/04 07:03:21;;;;;;;;;;;;;;;15.70;34.59;99841.81;5065475;27;97960;-78
2021/05/04 07:05:48;;;;;;;;;;;;;;;15.57;34.85;99854.28;5065739;27;96679;-77
2021/05/04 07:08:14;;;;;;;;;;;;;;;15.22;35.37;99859.38;5072512;27;97458;-79
2021/05/04 07:10:39;;;;;;;;;;;;;;;15.17;35.62;99857.00;5073128;27;97724;-78
2021/05/04 07:13:05;;;;;;;;;;;;;;;15.08;35.45;99839.88;5077232;27;98762;-78
2021/05/04 07:15:31;;;;;;;;;;;;;;;14.99;35.62;99842.31;5074057;27;97611;-77
2021/05/04 07:17:57;;;;;;;;;;;;;;;14.90;35.59;99829.66;5068660;27;96878;-77
2021/05/04 07:20:23;;;;;;;;;;;;;;;15.05;35.71;99831.25;5066896;27;98965;-77
2021/05/04 07:22:54;;;;;;;;;;;;;;;15.13;35.40;99839.56;5071807;27;99212;-76
2021/05/04 07:25:20;;;;;;;;;;;;;;;15.40;35.38;99840.31;5068309;27;98438;-78
2021/05/04 07:27:47;;;;;;;;;;;;;;;15.38;34.85;99844.91;5064658;27;97290;-78
2021/05/04 07:30:14;;;;;;;;;;;;;;;15.28;35.13;99861.63;5059783;27;98923;-77
2021/05/04 07:32:40;;;;;;;;;;;;;;;15.65;34.73;99860.78;5051301;27;98507;-77
2021/05/04 07:35:09;;;;;;;;;;;;;;;15.52;34.62;99871.44;5063741;27;97442;-77
2021/05/04 07:37:38;;;;;;;;;;;;;;;14.99;35.98;99868.91;5063859;27;98674;-77
2021/05/04 07:40:06;;;;;;;;;;;;;;;15.44;36.81;99875.56;5067445;27;99292;-78
2021/05/04 07:42:33;;;;;;;;;;;;;;;15.11;37.39;99865.41;5069888;27;98917;-78
2021/05/04 07:44:59;;;;;;;;;;;;;;;15.28;37.86;99875.78;5056995;27;96891;-78
2021/05/04 07:47:24;;;;;;;;;;;;;;;14.44;40.65;99874.38;5068058;27;97544;-77
2021/05/04 07:49:50;;;;;;;;;;;;;;;14.60;42.01;99880.38;5069601;27;98887;-77
2021/05/04 07:52:18;;;;;;;;;;;;;;;14.50;42.71;99874.84;5072272;27;99336;-78
2021/05/04 07:54:45;;;;;;;;;;;;;;;14.19;44.05;99885.69;5069851;27;97279;-77
2021/05/04 07:57:12;;;;;;;;;;;;;;;13.93;44.55;99868.75;5074483;27;99114;-77
2021/05/04 07:59:38;;;;;;;;;;;;;;;14.19;44.56;99856.47;5075207;27;98799;-76
2021/05/04 08:02:04;;;;;;;;;;;;;;;14.48;44.51;99843.97;5072878;27;100411;-76
2021/05/04 08:04:30;;;;;;;;;;;;;;;14.49;44.21;99841.22;5072505;27;96940;-77
2021/05/04 08:06:56;;;;;;;;;;;;;;;14.20;44.85;99826.28;5079544;27;96987;-77
2021/05/04 08:09:24;;;;;;;;;;;;;;;14.29;44.33;99823.03;5074856;27;98636;-76
2021/05/04 08:11:50;;;;;;;;;;;;;;;14.75;43.03;99811.09;5079214;27;97685;-77
2021/05/04 08:14:22;;;;;;;;;;;;;;;15.21;42.43;99810.63;5085537;27;96779;-77
2021/05/04 08:16:47;;;;;;;;;;;;;;;15.42;41.43;99806.47;5087503;27;96900;-77
2021/05/04 08:19:13;;;;;;;;;;;;;;;15.38;41.36;99799.63;5089388;27;97769;-75
2021/05/04 08:21:43;;;;;;;;;;;;;;;15.35;41.50;99797.22;5076808;27;99834;-76
2021/05/04 08:24:10;;;;;;;;;;;;;;;15.81;41.60;99789.50;5080129;27;96764;-75
2021/05/04 08:26:36;;;;;;;;;;;;;;;15.60;41.89;99779.53;5078485;27;97463;-77
2021/05/04 08:29:02;;;;;;;;;;;;;;;15.86;41.99;99773.19;5071152;27;98862;-77
2021/05/04 08:31:29;;;;;;;;;;;;;;;15.94;40.51;99774.34;5073093;27;98088;-77
2021/05/04 08:33:55;;;;;;;;;;;;;;;15.20;41.83;99762.81;5072425;27;97890;-78
2021/05/04 08:36:20;;;;;;;;;;;;;;;16.10;40.36;99752.72;5070494;27;97177;-77
2021/05/04 08:38:46;;;;;;;;;;;;;;;16.42;39.59;99749.47;5070221;27;98899;-77
2021/05/04 08:41:14;;;;;;;;;;;;;;;15.70;40.26;99736.13;5072207;27;97367;-77
2021/05/04 08:43:40;;;;;;;;;;;;;;;15.95;39.95;99744.03;5067824;27;98381;-77
2021/05/04 08:46:06;;;;;;;;;;;;;;;16.30;40.01;99740.59;5067459;27;98414;-77
2021/05/04 08:48:33;;;;;;;;;;;;;;;16.68;39.26;99735.88;5067673;27;99277;-77
2021/05/04 08:50:59;;;;;;;;;;;;;;;15.85;39.93;99745.69;5068037;27;99295;-77
2021/05/04 08:53:25;;;;;;;;;;;;;;;16.71;38.90;99726.81;5067842;27;97564;-77
2021/05/04 08:55:51;;;;;;;;;;;;;;;16.86;37.78;99720.31;5071162;27;97266;-77
2021/05/04 08:58:17;;;;;;;;;;;;;;;16.23;38.76;99721.53;5072045;27;98862;-77
2021/05/04 09:00:43;;;;;;;;;;;;;;;17.00;38.14;99728.06;5066749;27;98687;-79
2021/05/04 09:03:12;;;;;;;;;;;;;;;17.21;36.97;99708.66;5070484;27;97087;-79
2021/05/04 09:05:47;;;;;;;;;;;;;;;17.23;37.07;99704.06;5069747;27;98795;-78
2021/05/04 09:08:30;;;;;;;;;;;;;;;17.34;37.05;99704.91;5069089;27;99317;-78
2021/05/04 09:11:16;;;;;;;;;;;;;;;17.20;37.12;99696.31;5066937;27;97808;-77
2021/05/04 09:13:47;;;;;;;;;;;;;;;17.54;36.10;99692.63;5069282;27;96994;-78
2021/05/04 09:16:25;;;;;;;;;;;;;;;17.35;36.40;99687.91;5069396;27;96976;-78
2021/05/04 09:21:37;;;;;;;;;;;;;;;17.10;36.26;99685.50;5068740;27;97141;-77
2021/05/04 09:24:21;;;;;;;;;;;;;;;16.80;36.26;99686.09;5068571;27;97162;-79
2021/05/04 09:26:47;;;;;;;;;;;;;;;16.83;35.95;99675.19;5070865;27;97927;-78
2021/05/04 09:29:13;;;;;;;;;;;;;;;17.06;35.76;99668.91;5073403;27;97717;-79
2021/05/04 09:31:40;;;;;;;;;;;;;;;17.29;34.69;99675.06;5078586;27;98950;-77
2021/05/04 09:34:09;;;;;;;;;;;;;;;18.05;33.37;99668.00;5075462;27;97214;-77
2021/05/04 09:36:53;;;;;;;;;;;;;;;18.27;32.62;99654.53;5072215;27;97171;-76
2021/05/04 09:39:26;;;;;;;;;;;;;;;18.84;32.27;99650.56;5069887;27;97740;-77
2021/05/04 09:41:53;;;;;;;;;;;;;;;19.02;31.68;99651.63;5066326;27;99105;-78
2021/05/04 09:44:37;;;;;;;;;;;;;;;18.73;32.01;99647.94;5074526;27;98571;-78
2021/05/04 09:47:04;;;;;;;;;;;;;;;17.67;32.71;99645.28;5075453;27;96985;-78
2021/05/04 09:49:32;;;;;;;;;;;;;;;18.05;32.27;99633.25;5084102;27;99529;-77
2021/05/04 09:52:18;;;;;;;;;;;;;;;18.04;32.69;99636.91;5087397;27;98884;-77
2021/05/04 09:54:48;;;;;;;;;;;;;;;18.57;31.64;99640.41;5065587;27;96860;-77
2021/05/04 09:57:44;;;;;;;;;;;;;;;18.61;30.89;99631.13;5070798;27;97406;-77
2021/05/04 10:00:11;;;;;;;;;;;;;;;18.68;30.45;99622.44;4978739;28;98983;-77
2021/05/04 10:02:37;;;;;;;;;;;;;;;18.68;30.24;99621.59;5048687;27;98904;-77
2021/05/04 10:05:04;;;;;;;;;;;;;;;18.31;30.54;99621.22;5063596;27;97404;-78
2021/05/04 10:07:31;;;;;;;;;;;;;;;18.81;30.14;99610.66;5070361;27;97592;-78
2021/05/04 10:10:01;;;;;;;;;;;;;;;19.09;29.54;99602.78;5070212;27;98873;-77
2021/05/04 10:12:28;;;;;;;;;;;;;;;18.74;29.94;99606.84;5066088;27;100010;-77
2021/05/04 10:14:57;;;;;;;;;;;;;;;18.50;30.42;99610.63;5065090;27;97763;-77
2021/05/04 10:17:23;;;;;;;;;;;;;;;19.10;29.45;99595.56;5070981;27;96875;-76
2021/05/04 10:19:52;;;;;;;;;;;;;;;18.61;30.08;99602.56;5071213;27;98927;-78
2021/05/04 10:22:18;;;;;;;;;;;;;;;18.99;29.62;99606.38;5069900;27;98917;-78
2021/05/04 10:24:44;;;;;;;;;;;;;;;19.04;29.42;99586.25;5070537;27;97772;-77
2021/05/04 10:27:12;;;;;;;;;;;;;;;19.36;28.97;99606.66;5084047;27;96887;-77
2021/05/04 10:29:38;;;;;;;;;;;;;;;18.64;29.70;99606.81;5086962;27;98009;-77
2021/05/04 10:32:05;;;;;;;;;;;;;;;18.02;30.90;99610.28;5084738;27;97574;-77
2021/05/04 10:34:33;;;;;;;;;;;;;;;18.55;30.30;99604.88;5088248;27;96772;-77
2021/05/04 10:36:59;;;;;;;;;;;;;;;18.67;29.85;99604.69;5091005;27;97592;-76
2021/05/04 10:39:35;;;;;;;;;;;;;;;18.43;30.46;99606.78;5088331;27;98231;-76
2021/05/04 10:42:01;;;;;;;;;;;;;;;18.08;30.68;99606.25;5089004;27;98127;-77
2021/05/04 10:44:28;;;;;;;;;;;;;;;18.39;30.31;99607.16;5084243;27;96682;-77
2021/05/04 10:46:56;;;;;;;;;;;;;;;18.02;31.03;99604.09;5084768;27;96981;-77
2021/05/04 10:49:37;;;;;;;;;;;;;;;18.67;30.48;99628.78;5082646;27;100145;-77
2021/05/04 10:52:03;;;;;;;;;;;;;;;18.54;29.61;99628.09;5083808;27;96882;-77
2021/05/04 10:54:49;;;;;;;;;;;;;;;18.64;30.20;99602.28;5077888;27;97008;-76
2021/05/04 10:57:16;;;;;;;;;;;;;;;18.61;30.31;99607.06;5073666;27;97018;-78
2021/05/04 10:59:44;;;;;;;;;;;;;;;18.80;29.88;99606.28;5063219;27;99042;-77
2021/05/04 11:02:26;;;;;;;;;;;;;;;18.20;30.89;99597.19;5064390;27;98355;-77
2021/05/04 11:04:52;;;;;;;;;;;;;;;18.47;31.03;99616.22;5069975;27;97158;-76
2021/05/04 11:07:45;;;;;;;;;;;;;;;18.24;31.16;99601.31;5067849;27;97321;-78
2021/05/04 11:10:12;;;;;;;;;;;;;;;18.85;31.02;99601.38;5064461;27;97295;-78
2021/05/04 11:12:39;;;;;;;;;;;;;;;18.29;31.62;99609.78;5068504;27;99237;-78
2021/05/04 11:15:24;;;;;;;;;;;;;;;18.33;31.94;99584.47;5073367;27;96834;-77
2021/05/04 11:17:50;;;;;;;;;;;;;;;18.30;31.76;99580.25;5071809;27;96959;-76
2021/05/04 11:20:30;;;;;;;;;;;;;;;18.91;31.07;99584.78;5071565;27;97808;-78
2021/05/04 11:22:56;;;;;;;;;;;;;;;19.34;30.23;99569.28;5066316;27;98911;-77
2021/05/04 11:25:32;;;;;;;;;;;;;;;19.92;29.85;99565.81;5065746;27;97498;-77
2021/05/04 11:27:58;;;;;;;;;;;;;;;19.85;30.00;99570.88;5068808;27;97806;-75
2021/05/04 11:30:31;;;;;;;;;;;;;;;19.89;29.99;99586.53;5068576;27;98332;-77
2021/05/04 11:32:58;;;;;;;;;;;;;;;19.72;30.35;99583.72;5069714;27;99277;-77
2021/05/04 11:35:35;;;;;;;;;;;;;;;19.73;29.93;99593.47;5075616;27;96845;-75
2021/05/04 11:38:01;;;;;;;;;;;;;;;18.88;31.52;99582.38;5065578;27;98989;-77
2021/05/04 11:40:28;;;;;;;;;;;;;;;18.62;32.43;99585.53;5071559;27;98626;-77
2021/05/04 11:42:55;;;;;;;;;;;;;;;18.81;32.05;99589.25;5074945;27;98885;-76
2021/05/04 11:45:23;;;;;;;;;;;;;;;18.44;32.76;99596.94;5069596;27;97721;-77
2021/05/04 11:47:50;;;;;;;;;;;;;;;19.42;31.26;99598.91;5066917;27;96978;-76
2021/05/04 11:50:16;;;;;;;;;;;;;;;19.31;30.78;99595.47;5069804;27;100252;-76
2021/05/04 11:52:43;;;;;;;;;;;;;;;19.44;30.68;99594.22;5079274;27;99206;-78
2021/05/04 11:55:12;;;;;;;;;;;;;;;18.68;31.18;99586.81;5078003;27;98537;-78
2021/05/04 11:57:38;;;;;;;;;;;;;;;19.00;31.01;99583.97;5076587;27;96906;-76
2021/05/04 12:00:05;;;;;;;;;;;;;;;19.35;30.66;99581.69;5069984;27;100754;-76
2021/05/04 12:02:32;;;;;;;;;;;;;;;18.81;31.38;99586.59;5066693;27;102154;-77
2021/05/04 12:04:58;;;;;;;;;;;;;;;18.79;31.75;99588.53;5066844;27;98683;-76
2021/05/04 12:07:38;;;;;;;;;;;;;;;18.64;31.93;99591.56;5068798;27;97943;-76
2021/05/04 12:10:05;;;;;;;;;;;;;;;18.34;32.59;99583.50;5060653;27;98809;-77
2021/05/04 12:12:41;;;;;;;;;;;;;;;18.49;32.75;99584.00;5065886;27;98823;-76
2021/05/04 12:15:07;;;;;;;;;;;;;;;17.86;33.81;99605.38;5066849;27;96793;-76
2021/05/04 12:17:34;;;;;;;;;;;;;;;18.21;33.14;99594.38;5067332;27;96942;-79
2021/05/04 12:20:08;;;;;;;;;;;;;;;18.40;33.02;99596.34;5065719;27;98980;-77
2021/05/04 12:22:41;;;;;;;;;;;;;;;18.44;32.53;99595.13;5070009;27;98093;-76
2021/05/04 12:25:08;;;;;;;;;;;;;;;18.39;32.76;99569.72;5066520;27;97365;-77
2021/05/04 12:27:34;;;;;;;;;;;;;;;18.61;32.19;99565.09;5063636;27;96876;-77
2021/05/04 12:30:00;;;;;;;;;;;;;;;18.19;33.12;99590.13;5069679;27;98899;-77
2021/05/04 12:32:33;;;;;;;;;;;;;;;18.26;33.08;99577.94;5068232;27;98935;-78
2021/05/04 12:35:14;;;;;;;;;;;;;;;18.48;33.04;99574.28;5069192;27;98588;-77
2021/05/04 12:37:39;;;;;;;;;;;;;;;18.45;33.11;99555.81;5065920;27;98851;-76
2021/05/04 12:40:12;;;;;;;;;;;;;;;17.92;33.44;99559.41;5064990;27;98860;-78
2021/05/04 12:42:37;;;;;;;;;;;;;;;18.53;32.75;99554.19;5063953;27;101288;-76
2021/05/04 12:45:10;;;;;;;;;;;;;;;18.63;32.57;99555.13;5065585;27;97274;-77
2021/05/04 12:47:47;;;;;;;;;;;;;;;19.32;31.65;99552.50;5067825;27;97327;-77